sensor_id;sensor_type;location;lat;lon;timestamp;temperature;humidity
42907;DHT22;28552;51.146;6.576;2023-04-25T00:02:42;5.40;99.90
42907;DHT22;28552;51.146;6.576;2023-04-25T00:05:42;5.40;99.90
42907;DHT22;28552;51.146;6.576;2023-04-25T00:08:44;5.40;99.90
42907;DHT22;28552;51.146;6.576;2023-04-25T00:11:45;5.40;99.90
42907;DHT22;28552;51.146;6.576;2023-04-25T00:14:45;5.40;99.90
42907;DHT22;28552;51.146;6.576;2023-04-25T00:17:47;5.40;99.90
42907;DHT22;28552;51.146;6.576;2023-04-25T00:20:48;5.40;99.90
42907;DHT22;28552;51.146;6.576;2023-04-25T00:23:49;5.30;99.90
42907;DHT22;28552;51.146;6.576;2023-04-25T00:26:49;5.30;99.90
42907;DHT22;28552;51.146;6.576;2023-04-25T00:29:50;5.30;99.90
42907;DHT22;28552;51.146;6.576;2023-04-25T00:32:50;5.30;99.90
42907;DHT22;28552;51.146;6.576;2023-04-25T00:35:51;5.30;99.90
42907;DHT22;28552;51.146;6.576;2023-04-25T00:38:53;5.30;99.90
42907;DHT22;28552;51.146;6.576;2023-04-25T00:41:55;5.40;99.90
42907;DHT22;28552;51.146;6.576;2023-04-25T00:44:56;5.50;99.90
42907;DHT22;28552;51.146;6.576;2023-04-25T00:47:57;5.60;99.90
42907;DHT22;28552;51.146;6.576;2023-04-25T00:50:58;5.70;99.90
42907;DHT22;28552;51.146;6.576;2023-04-25T00:53:59;5.80;99.90
42907;DHT22;28552;51.146;6.576;2023-04-25T00:57:00;5.90;99.90
42907;DHT22;28552;51.146;6.576;2023-04-25T01:00:02;6.00;99.90
42907;DHT22;28552;51.146;6.576;2023-04-25T01:03:03;6.00;99.90
42907;DHT22;28552;51.146;6.576;2023-04-25T01:06:04;6.10;99.90
42907;DHT22;28552;51.146;6.576;2023-04-25T01:09:04;6.10;99.90
42907;DHT22;28552;51.146;6.576;2023-04-25T01:12:05;6.20;99.90
42907;DHT22;28552;51.146;6.576;2023-04-25T01:15:06;6.20;99.90
42907;DHT22;28552;51.146;6.576;2023-04-25T01:18:07;6.30;99.90
42907;DHT22;28552;51.146;6.576;2023-04-25T01:21:09;6.30;99.90
42907;DHT22;28552;51.146;6.576;2023-04-25T01:24:10;6.30;99.90
42907;DHT22;28552;51.146;6.576;2023-04-25T01:27:11;6.30;99.90
42907;DHT22;28552;51.146;6.576;2023-04-25T01:30:12;6.40;99.90
42907;DHT22;28552;51.146;6.576;2023-04-25T01:33:14;6.40;99.90
42907;DHT22;28552;51.146;6.576;2023-04-25T01:36:14;6.40;99.90
42907;DHT22;28552;51.146;6.576;2023-04-25T01:39:16;6.40;99.90
42907;DHT22;28552;51.146;6.576;2023-04-25T01:42:18;6.40;99.90
42907;DHT22;28552;51.146;6.576;2023-04-25T01:45:19;6.40;99.90
42907;DHT22;28552;51.146;6.576;2023-04-25T01:48:19;6.40;99.90
42907;DHT22;28552;51.146;6.576;2023-04-25T01:51:20;6.40;99.90
42907;DHT22;28552;51.146;6.576;2023-04-25T01:54:21;6.30;99.90
42907;DHT22;28552;51.146;6.576;2023-04-25T01:57:21;6.30;99.90
42907;DHT22;28552;51.146;6.576;2023-04-25T02:00:22;6.30;99.90
42907;DHT22;28552;51.146;6.576;2023-04-25T02:03:23;6.30;99.90
42907;DHT22;28552;51.146;6.576;2023-04-25T02:06:23;6.30;99.90
42907;DHT22;28552;51.146;6.576;2023-04-25T02:09:24;6.30;99.90
42907;DHT22;28552;51.146;6.576;2023-04-25T02:12:26;6.20;99.90
42907;DHT22;28552;51.146;6.576;2023-04-25T02:15:27;6.20;99.90
42907;DHT22;28552;51.146;6.576;2023-04-25T02:18:28;6.10;99.90
42907;DHT22;28552;51.146;6.576;2023-04-25T02:21:28;6.10;99.90
42907;DHT22;28552;51.146;6.576;2023-04-25T02:24:29;6.10;99.90
42907;DHT22;28552;51.146;6.576;2023-04-25T02:27:30;6.10;99.90
42907;DHT22;28552;51.146;6.576;2023-04-25T02:30:30;6.10;99.90
42907;DHT22;28552;51.146;6.576;2023-04-25T02:33:31;6.10;99.90
42907;DHT22;28552;51.146;6.576;2023-04-25T02:36:31;6.10;99.90
42907;DHT22;28552;51.146;6.576;2023-04-25T02:39:34;6.10;99.90
42907;DHT22;28552;51.146;6.576;2023-04-25T02:42:35;6.00;99.90
42907;DHT22;28552;51.146;6.576;2023-04-25T02:45:35;6.00;99.90
42907;DHT22;28552;51.146;6.576;2023-04-25T02:48:36;5.90;99.90
42907;DHT22;28552;51.146;6.576;2023-04-25T02:51:36;5.90;99.90
42907;DHT22;28552;51.146;6.576;2023-04-25T02:54:38;5.80;99.90
42907;DHT22;28552;51.146;6.576;2023-04-25T02:57:39;5.80;99.90
42907;DHT22;28552;51.146;6.576;2023-04-25T03:00:39;5.80;99.90
42907;DHT22;28552;51.146;6.576;2023-04-25T03:03:40;5.80;99.90
42907;DHT22;28552;51.146;6.576;2023-04-25T03:06:40;5.80;99.90
42907;DHT22;28552;51.146;6.576;2023-04-25T03:09:41;5.90;99.90
42907;DHT22;28552;51.146;6.576;2023-04-25T03:12:41;5.90;99.90
42907;DHT22;28552;51.146;6.576;2023-04-25T03:15:42;5.90;99.90
42907;DHT22;28552;51.146;6.576;2023-04-25T03:18:42;5.90;99.90
42907;DHT22;28552;51.146;6.576;2023-04-25T03:21:43;5.90;99.90
42907;DHT22;28552;51.146;6.576;2023-04-25T03:24:44;5.80;99.90
42907;DHT22;28552;51.146;6.576;2023-04-25T03:27:44;5.80;99.90
42907;DHT22;28552;51.146;6.576;2023-04-25T03:30:45;5.80;99.90
42907;DHT22;28552;51.146;6.576;2023-04-25T03:33:46;5.80;99.90
42907;DHT22;28552;51.146;6.576;2023-04-25T03:36:46;5.80;99.90
42907;DHT22;28552;51.146;6.576;2023-04-25T03:39:47;5.80;99.90
42907;DHT22;28552;51.146;6.576;2023-04-25T03:42:47;5.80;99.90
42907;DHT22;28552;51.146;6.576;2023-04-25T03:45:48;5.80;99.90
42907;DHT22;28552;51.146;6.576;2023-04-25T03:48:48;5.80;99.90
42907;DHT22;28552;51.146;6.576;2023-04-25T03:51:49;5.80;99.90
42907;DHT22;28552;51.146;6.576;2023-04-25T03:54:49;5.90;99.90
42907;DHT22;28552;51.146;6.576;2023-04-25T03:57:50;5.90;99.90
42907;DHT22;28552;51.146;6.576;2023-04-25T04:00:50;5.90;99.90
42907;DHT22;28552;51.146;6.576;2023-04-25T04:03:51;5.90;99.90
42907;DHT22;28552;51.146;6.576;2023-04-25T04:06:51;5.90;99.90
42907;DHT22;28552;51.146;6.576;2023-04-25T04:09:52;5.90;99.90
42907;DHT22;28552;51.146;6.576;2023-04-25T04:12:53;5.90;99.90
42907;DHT22;28552;51.146;6.576;2023-04-25T04:15:54;5.80;99.90
42907;DHT22;28552;51.146;6.576;2023-04-25T04:18:54;5.80;99.90
42907;DHT22;28552;51.146;6.576;2023-04-25T04:21:55;5.70;99.90
42907;DHT22;28552;51.146;6.576;2023-04-25T04:24:55;5.70;99.90
42907;DHT22;28552;51.146;6.576;2023-04-25T04:27:57;5.60;99.90
42907;DHT22;28552;51.146;6.576;2023-04-25T04:30:57;5.50;99.90
42907;DHT22;28552;51.146;6.576;2023-04-25T04:33:58;5.50;99.90
42907;DHT22;28552;51.146;6.576;2023-04-25T04:36:58;5.50;99.90
42907;DHT22;28552;51.146;6.576;2023-04-25T04:39:59;5.40;99.90
42907;DHT22;28552;51.146;6.576;2023-04-25T04:42:59;5.40;99.90
42907;DHT22;28552;51.146;6.576;2023-04-25T04:46:00;5.40;99.90
42907;DHT22;28552;51.146;6.576;2023-04-25T04:49:01;5.30;99.90
42907;DHT22;28552;51.146;6.576;2023-04-25T04:52:02;5.30;99.90
42907;DHT22;28552;51.146;6.576;2023-04-25T04:55:03;5.40;99.90
42907;DHT22;28552;51.146;6.576;2023-04-25T04:58:04;5.40;99.90
42907;DHT22;28552;51.146;6.576;2023-04-25T05:01:05;5.40;99.90
42907;DHT22;28552;51.146;6.576;2023-04-25T05:04:06;5.40;99.90
42907;DHT22;28552;51.146;6.576;2023-04-25T05:07:06;5.50;99.90
42907;DHT22;28552;51.146;6.576;2023-04-25T05:10:07;5.50;99.90
42907;DHT22;28552;51.146;6.576;2023-04-25T05:13:08;5.60;99.90
42907;DHT22;28552;51.146;6.576;2023-04-25T05:16:09;5.60;99.90
42907;DHT22;28552;51.146;6.576;2023-04-25T05:19:09;5.70;99.90
42907;DHT22;28552;51.146;6.576;2023-04-25T05:22:10;5.70;99.90
42907;DHT22;28552;51.146;6.576;2023-04-25T05:25:10;5.80;99.90
42907;DHT22;28552;51.146;6.576;2023-04-25T05:28:12;5.80;99.90
42907;DHT22;28552;51.146;6.576;2023-04-25T05:31:13;5.80;99.90
42907;DHT22;28552;51.146;6.576;2023-04-25T05:34:14;5.80;99.90
42907;DHT22;28552;51.146;6.576;2023-04-25T05:37:14;5.90;99.90
42907;DHT22;28552;51.146;6.576;2023-04-25T05:40:15;5.90;99.90
42907;DHT22;28552;51.146;6.576;2023-04-25T05:43:15;5.90;99.90
42907;DHT22;28552;51.146;6.576;2023-04-25T05:46:16;6.00;99.90
42907;DHT22;28552;51.146;6.576;2023-04-25T05:49:17;6.10;99.90
42907;DHT22;28552;51.146;6.576;2023-04-25T05:52:17;6.20;99.90
42907;DHT22;28552;51.146;6.576;2023-04-25T05:55:18;6.30;99.90
42907;DHT22;28552;51.146;6.576;2023-04-25T05:58:19;6.40;99.90
42907;DHT22;28552;51.146;6.576;2023-04-25T06:01:19;6.50;99.90
42907;DHT22;28552;51.146;6.576;2023-04-25T06:04:20;6.60;99.90
42907;DHT22;28552;51.146;6.576;2023-04-25T06:07:20;6.60;99.90
42907;DHT22;28552;51.146;6.576;2023-04-25T06:10:21;6.70;99.90
42907;DHT22;28552;51.146;6.576;2023-04-25T06:13:22;6.80;99.90
42907;DHT22;28552;51.146;6.576;2023-04-25T06:16:23;6.90;99.90
42907;DHT22;28552;51.146;6.576;2023-04-25T06:19:26;7.00;99.90
42907;DHT22;28552;51.146;6.576;2023-04-25T06:22:26;7.10;99.90
42907;DHT22;28552;51.146;6.576;2023-04-25T06:25:27;7.20;99.90
42907;DHT22;28552;51.146;6.576;2023-04-25T06:28:27;7.30;99.90
42907;DHT22;28552;51.146;6.576;2023-04-25T06:31:28;7.40;99.90
42907;DHT22;28552;51.146;6.576;2023-04-25T06:34:29;7.60;99.90
42907;DHT22;28552;51.146;6.576;2023-04-25T06:37:30;7.70;99.90
42907;DHT22;28552;51.146;6.576;2023-04-25T06:40:30;7.70;99.90
42907;DHT22;28552;51.146;6.576;2023-04-25T06:43:31;7.60;99.90
42907;DHT22;28552;51.146;6.576;2023-04-25T06:46:33;7.70;99.90
42907;DHT22;28552;51.146;6.576;2023-04-25T06:49:34;7.70;99.90
42907;DHT22;28552;51.146;6.576;2023-04-25T06:52:34;7.80;99.90
42907;DHT22;28552;51.146;6.576;2023-04-25T06:55:35;7.90;99.90
42907;DHT22;28552;51.146;6.576;2023-04-25T06:58:35;8.00;99.90
42907;DHT22;28552;51.146;6.576;2023-04-25T07:01:36;8.00;99.90
42907;DHT22;28552;51.146;6.576;2023-04-25T07:04:37;8.10;99.90
42907;DHT22;28552;51.146;6.576;2023-04-25T07:07:37;8.10;99.90
42907;DHT22;28552;51.146;6.576;2023-04-25T07:10:39;8.10;99.90
42907;DHT22;28552;51.146;6.576;2023-04-25T07:13:40;8.20;99.90
42907;DHT22;28552;51.146;6.576;2023-04-25T07:16:40;8.20;99.90
42907;DHT22;28552;51.146;6.576;2023-04-25T07:19:42;8.20;99.90
42907;DHT22;28552;51.146;6.576;2023-04-25T07:22:43;8.20;99.90
42907;DHT22;28552;51.146;6.576;2023-04-25T07:25:44;8.10;99.90
42907;DHT22;28552;51.146;6.576;2023-04-25T07:28:45;8.10;99.90
42907;DHT22;28552;51.146;6.576;2023-04-25T07:31:49;7.90;99.90
42907;DHT22;28552;51.146;6.576;2023-04-25T07:34:50;8.00;99.90
42907;DHT22;28552;51.146;6.576;2023-04-25T07:37:51;8.00;99.90
42907;DHT22;28552;51.146;6.576;2023-04-25T07:40:52;8.00;99.90
42907;DHT22;28552;51.146;6.576;2023-04-25T07:43:52;8.30;99.90
42907;DHT22;28552;51.146;6.576;2023-04-25T07:46:53;8.70;99.90
42907;DHT22;28552;51.146;6.576;2023-04-25T07:49:53;9.10;99.90
42907;DHT22;28552;51.146;6.576;2023-04-25T07:52:54;9.40;99.90
42907;DHT22;28552;51.146;6.576;2023-04-25T07:55:55;9.70;99.90
42907;DHT22;28552;51.146;6.576;2023-04-25T07:58:55;9.90;99.90
42907;DHT22;28552;51.146;6.576;2023-04-25T08:01:56;9.70;99.90
42907;DHT22;28552;51.146;6.576;2023-04-25T08:04:57;9.30;99.90
42907;DHT22;28552;51.146;6.576;2023-04-25T08:07:58;9.20;99.90
42907;DHT22;28552;51.146;6.576;2023-04-25T08:10:59;9.40;99.90
42907;DHT22;28552;51.146;6.576;2023-04-25T08:14:00;9.70;99.90
42907;DHT22;28552;51.146;6.576;2023-04-25T08:17:00;9.90;99.90
42907;DHT22;28552;51.146;6.576;2023-04-25T08:20:01;9.90;99.90
42907;DHT22;28552;51.146;6.576;2023-04-25T08:23:03;10.00;99.90
42907;DHT22;28552;51.146;6.576;2023-04-25T08:26:03;9.90;99.90
42907;DHT22;28552;51.146;6.576;2023-04-25T08:29:05;9.90;99.90
42907;DHT22;28552;51.146;6.576;2023-04-25T08:32:06;9.90;99.90
42907;DHT22;28552;51.146;6.576;2023-04-25T08:35:07;9.80;99.90
42907;DHT22;28552;51.146;6.576;2023-04-25T08:38:08;9.60;99.90
42907;DHT22;28552;51.146;6.576;2023-04-25T08:41:11;9.50;99.90
42907;DHT22;28552;51.146;6.576;2023-04-25T08:44:11;9.60;99.90
42907;DHT22;28552;51.146;6.576;2023-04-25T08:47:12;9.70;99.90
42907;DHT22;28552;51.146;6.576;2023-04-25T08:50:12;9.80;99.90
42907;DHT22;28552;51.146;6.576;2023-04-25T08:53:14;9.90;99.90
42907;DHT22;28552;51.146;6.576;2023-04-25T08:56:18;10.20;99.90
42907;DHT22;28552;51.146;6.576;2023-04-25T08:59:23;10.40;99.90
42907;DHT22;28552;51.146;6.576;2023-04-25T09:02:24;10.50;99.90
42907;DHT22;28552;51.146;6.576;2023-04-25T09:05:25;10.40;99.90
42907;DHT22;28552;51.146;6.576;2023-04-25T09:08:25;10.30;99.90
42907;DHT22;28552;51.146;6.576;2023-04-25T09:11:26;10.20;99.90
42907;DHT22;28552;51.146;6.576;2023-04-25T09:14:27;10.10;99.90
42907;DHT22;28552;51.146;6.576;2023-04-25T09:17:28;9.90;99.90
42907;DHT22;28552;51.146;6.576;2023-04-25T09:20:29;9.80;99.90
42907;DHT22;28552;51.146;6.576;2023-04-25T09:23:29;9.60;99.90
42907;DHT22;28552;51.146;6.576;2023-04-25T09:26:31;9.40;99.90
42907;DHT22;28552;51.146;6.576;2023-04-25T09:29:34;9.20;99.90
42907;DHT22;28552;51.146;6.576;2023-04-25T09:32:35;9.00;99.90
42907;DHT22;28552;51.146;6.576;2023-04-25T09:35:37;9.10;99.90
42907;DHT22;28552;51.146;6.576;2023-04-25T09:38:43;9.40;99.90
42907;DHT22;28552;51.146;6.576;2023-04-25T09:41:44;9.80;99.90
42907;DHT22;28552;51.146;6.576;2023-04-25T09:44:46;10.10;99.90
42907;DHT22;28552;51.146;6.576;2023-04-25T09:47:47;10.10;99.90
42907;DHT22;28552;51.146;6.576;2023-04-25T09:51:04;9.70;99.90
42907;DHT22;28552;51.146;6.576;2023-04-25T09:54:06;9.30;99.90
42907;DHT22;28552;51.146;6.576;2023-04-25T10:00:12;9.10;99.90
42907;DHT22;28552;51.146;6.576;2023-04-25T10:03:14;9.10;99.90
42907;DHT22;28552;51.146;6.576;2023-04-25T10:06:19;9.40;99.90
42907;DHT22;28552;51.146;6.576;2023-04-25T10:09:21;9.60;99.90
42907;DHT22;28552;51.146;6.576;2023-04-25T10:12:23;9.70;99.90
42907;DHT22;28552;51.146;6.576;2023-04-25T10:15:24;9.80;99.90
42907;DHT22;28552;51.146;6.576;2023-04-25T10:18:26;9.90;99.90
42907;DHT22;28552;51.146;6.576;2023-04-25T10:21:28;10.00;99.90
42907;DHT22;28552;51.146;6.576;2023-04-25T10:24:31;10.00;99.90
42907;DHT22;28552;51.146;6.576;2023-04-25T10:27:32;10.00;99.90
42907;DHT22;28552;51.146;6.576;2023-04-25T10:30:34;10.40;99.90
42907;DHT22;28552;51.146;6.576;2023-04-25T10:33:36;10.80;99.90
42907;DHT22;28552;51.146;6.576;2023-04-25T10:36:37;10.90;99.90
42907;DHT22;28552;51.146;6.576;2023-04-25T10:39:39;10.60;99.90
42907;DHT22;28552;51.146;6.576;2023-04-25T10:42:41;10.70;99.90
42907;DHT22;28552;51.146;6.576;2023-04-25T10:45:56;10.50;99.90
42907;DHT22;28552;51.146;6.576;2023-04-25T10:48:59;10.50;99.90
42907;DHT22;28552;51.146;6.576;2023-04-25T10:52:15;10.60;99.90
42907;DHT22;28552;51.146;6.576;2023-04-25T10:55:16;10.70;99.90
42907;DHT22;28552;51.146;6.576;2023-04-25T10:58:22;10.60;99.90
42907;DHT22;28552;51.146;6.576;2023-04-25T11:01:24;10.60;99.90
42907;DHT22;28552;51.146;6.576;2023-04-25T11:04:29;10.50;99.90
42907;DHT22;28552;51.146;6.576;2023-04-25T11:07:49;10.50;99.90
42907;DHT22;28552;51.146;6.576;2023-04-25T11:10:51;10.50;99.90
42907;DHT22;28552;51.146;6.576;2023-04-25T11:13:51;10.60;99.90
42907;DHT22;28552;51.146;6.576;2023-04-25T11:16:54;10.70;99.90
42907;DHT22;28552;51.146;6.576;2023-04-25T11:19:56;10.80;99.90
42907;DHT22;28552;51.146;6.576;2023-04-25T11:22:58;10.90;99.90
42907;DHT22;28552;51.146;6.576;2023-04-25T11:26:00;11.20;99.90
42907;DHT22;28552;51.146;6.576;2023-04-25T11:29:01;11.50;99.90
42907;DHT22;28552;51.146;6.576;2023-04-25T11:32:02;11.80;99.90
42907;DHT22;28552;51.146;6.576;2023-04-25T11:35:03;11.80;99.90
42907;DHT22;28552;51.146;6.576;2023-04-25T11:38:04;11.60;99.90
42907;DHT22;28552;51.146;6.576;2023-04-25T11:41:04;11.10;99.90
42907;DHT22;28552;51.146;6.576;2023-04-25T11:44:05;11.00;99.90
42907;DHT22;28552;51.146;6.576;2023-04-25T11:47:06;10.70;99.90
42907;DHT22;28552;51.146;6.576;2023-04-25T11:50:08;10.60;99.90
42907;DHT22;28552;51.146;6.576;2023-04-25T11:53:09;10.30;99.90
42907;DHT22;28552;51.146;6.576;2023-04-25T11:56:10;10.00;99.90
42907;DHT22;28552;51.146;6.576;2023-04-25T11:59:13;9.90;99.90
42907;DHT22;28552;51.146;6.576;2023-04-25T12:02:24;9.90;99.90
42907;DHT22;28552;51.146;6.576;2023-04-25T12:05:28;10.00;99.90
42907;DHT22;28552;51.146;6.576;2023-04-25T12:08:29;10.20;99.90
42907;DHT22;28552;51.146;6.576;2023-04-25T12:11:30;10.30;99.90
42907;DHT22;28552;51.146;6.576;2023-04-25T12:14:34;10.40;99.90
42907;DHT22;28552;51.146;6.576;2023-04-25T12:17:35;10.50;99.90
42907;DHT22;28552;51.146;6.576;2023-04-25T12:20:37;10.40;99.90
42907;DHT22;28552;51.146;6.576;2023-04-25T12:23:39;10.40;99.90
42907;DHT22;28552;51.146;6.576;2023-04-25T12:27:03;10.40;99.90
42907;DHT22;28552;51.146;6.576;2023-04-25T12:30:04;10.50;99.90
42907;DHT22;28552;51.146;6.576;2023-04-25T12:33:05;10.50;99.90
42907;DHT22;28552;51.146;6.576;2023-04-25T12:36:06;10.70;99.90
42907;DHT22;28552;51.146;6.576;2023-04-25T12:39:14;10.90;99.90
42907;DHT22;28552;51.146;6.576;2023-04-25T12:42:15;11.00;99.90
42907;DHT22;28552;51.146;6.576;2023-04-25T12:45:16;10.90;99.90
42907;DHT22;28552;51.146;6.576;2023-04-25T12:48:17;10.70;99.90
42907;DHT22;28552;51.146;6.576;2023-04-25T12:51:18;10.60;99.90
42907;DHT22;28552;51.146;6.576;2023-04-25T12:54:18;10.70;99.90
42907;DHT22;28552;51.146;6.576;2023-04-25T12:57:19;10.90;99.90
42907;DHT22;28552;51.146;6.576;2023-04-25T13:00:19;11.10;99.40
42907;DHT22;28552;51.146;6.576;2023-04-25T13:03:20;11.20;99.90
42907;DHT22;28552;51.146;6.576;2023-04-25T13:06:22;11.40;99.60
42907;DHT22;28552;51.146;6.576;2023-04-25T13:09:23;11.60;99.60
42907;DHT22;28552;51.146;6.576;2023-04-25T13:12:23;11.80;99.90
42907;DHT22;28552;51.146;6.576;2023-04-25T13:15:24;11.90;98.90
42907;DHT22;28552;51.146;6.576;2023-04-25T13:18:25;11.70;99.80
42907;DHT22;28552;51.146;6.576;2023-04-25T13:21:26;11.40;98.50
42907;DHT22;28552;51.146;6.576;2023-04-25T13:24:27;11.30;97.40
42907;DHT22;28552;51.146;6.576;2023-04-25T13:27:27;11.70;97.10
42907;DHT22;28552;51.146;6.576;2023-04-25T13:30:28;11.70;97.00
42907;DHT22;28552;51.146;6.576;2023-04-25T13:33:29;11.80;99.20
42907;DHT22;28552;51.146;6.576;2023-04-25T13:36:30;12.00;96.40
42907;DHT22;28552;51.146;6.576;2023-04-25T13:39:30;12.00;98.00
42907;DHT22;28552;51.146;6.576;2023-04-25T13:42:32;11.70;97.40
42907;DHT22;28552;51.146;6.576;2023-04-25T13:45:32;11.40;98.10
42907;DHT22;28552;51.146;6.576;2023-04-25T13:48:33;11.10;99.90
42907;DHT22;28552;51.146;6.576;2023-04-25T13:51:34;10.80;99.90
42907;DHT22;28552;51.146;6.576;2023-04-25T13:54:35;10.70;99.90
42907;DHT22;28552;51.146;6.576;2023-04-25T13:57:36;10.60;99.90
42907;DHT22;28552;51.146;6.576;2023-04-25T14:00:38;10.40;99.90
42907;DHT22;28552;51.146;6.576;2023-04-25T14:03:39;10.20;99.90
42907;DHT22;28552;51.146;6.576;2023-04-25T14:06:40;10.10;99.90
42907;DHT22;28552;51.146;6.576;2023-04-25T14:09:42;10.00;99.90
42907;DHT22;28552;51.146;6.576;2023-04-25T14:12:42;10.00;99.90
42907;DHT22;28552;51.146;6.576;2023-04-25T14:15:43;10.20;99.90
42907;DHT22;28552;51.146;6.576;2023-04-25T14:18:44;10.60;99.90
42907;DHT22;28552;51.146;6.576;2023-04-25T14:21:45;10.80;99.90
42907;DHT22;28552;51.146;6.576;2023-04-25T14:24:46;11.10;99.90
42907;DHT22;28552;51.146;6.576;2023-04-25T14:27:47;11.10;98.80
42907;DHT22;28552;51.146;6.576;2023-04-25T14:30:50;11.20;98.20
42907;DHT22;28552;51.146;6.576;2023-04-25T14:33:50;11.20;97.80
42907;DHT22;28552;51.146;6.576;2023-04-25T14:36:51;11.20;99.90
42907;DHT22;28552;51.146;6.576;2023-04-25T14:39:52;11.40;99.80
42907;DHT22;28552;51.146;6.576;2023-04-25T14:42:52;11.50;99.90
42907;DHT22;28552;51.146;6.576;2023-04-25T14:45:53;11.60;99.90
42907;DHT22;28552;51.146;6.576;2023-04-25T14:48:54;11.50;99.90
42907;DHT22;28552;51.146;6.576;2023-04-25T14:51:56;11.20;99.90
42907;DHT22;28552;51.146;6.576;2023-04-25T14:54:56;10.90;99.90
42907;DHT22;28552;51.146;6.576;2023-04-25T14:57:57;10.80;99.90
42907;DHT22;28552;51.146;6.576;2023-04-25T15:00:57;10.40;99.90
42907;DHT22;28552;51.146;6.576;2023-04-25T15:03:58;10.00;99.90
42907;DHT22;28552;51.146;6.576;2023-04-25T15:06:58;9.70;99.90
42907;DHT22;28552;51.146;6.576;2023-04-25T15:10:00;9.60;99.90
42907;DHT22;28552;51.146;6.576;2023-04-25T15:13:01;9.60;99.90
42907;DHT22;28552;51.146;6.576;2023-04-25T15:16:02;9.80;99.90
42907;DHT22;28552;51.146;6.576;2023-04-25T15:19:03;10.10;99.90
42907;DHT22;28552;51.146;6.576;2023-04-25T15:22:04;10.40;99.90
42907;DHT22;28552;51.146;6.576;2023-04-25T15:25:09;10.70;99.90
42907;DHT22;28552;51.146;6.576;2023-04-25T15:28:09;11.10;99.90
42907;DHT22;28552;51.146;6.576;2023-04-25T15:31:10;11.10;99.90
42907;DHT22;28552;51.146;6.576;2023-04-25T15:34:11;11.10;99.90
42907;DHT22;28552;51.146;6.576;2023-04-25T15:37:11;11.10;99.90
42907;DHT22;28552;51.146;6.576;2023-04-25T15:40:14;11.20;99.90
42907;DHT22;28552;51.146;6.576;2023-04-25T15:43:15;11.30;99.90
42907;DHT22;28552;51.146;6.576;2023-04-25T15:46:16;11.50;99.90
42907;DHT22;28552;51.146;6.576;2023-04-25T15:49:17;11.60;99.60
42907;DHT22;28552;51.146;6.576;2023-04-25T15:52:18;11.60;99.00
42907;DHT22;28552;51.146;6.576;2023-04-25T15:55:21;11.60;99.00
42907;DHT22;28552;51.146;6.576;2023-04-25T15:58:22;11.50;97.60
42907;DHT22;28552;51.146;6.576;2023-04-25T16:01:22;11.40;98.40
42907;DHT22;28552;51.146;6.576;2023-04-25T16:04:25;11.30;97.70
42907;DHT22;28552;51.146;6.576;2023-04-25T16:07:26;11.20;98.40
42907;DHT22;28552;51.146;6.576;2023-04-25T16:10:27;11.20;99.20
42907;DHT22;28552;51.146;6.576;2023-04-25T16:13:27;11.40;99.00
42907;DHT22;28552;51.146;6.576;2023-04-25T16:16:29;11.60;98.70
42907;DHT22;28552;51.146;6.576;2023-04-25T16:19:29;11.60;95.60
42907;DHT22;28552;51.146;6.576;2023-04-25T16:22:30;11.60;96.60
42907;DHT22;28552;51.146;6.576;2023-04-25T16:25:31;11.60;95.30
42907;DHT22;28552;51.146;6.576;2023-04-25T16:28:32;11.60;96.60
42907;DHT22;28552;51.146;6.576;2023-04-25T16:31:33;11.70;95.80
42907;DHT22;28552;51.146;6.576;2023-04-25T16:34:35;11.70;95.50
42907;DHT22;28552;51.146;6.576;2023-04-25T16:37:36;11.60;95.90
42907;DHT22;28552;51.146;6.576;2023-04-25T16:40:36;11.20;97.20
42907;DHT22;28552;51.146;6.576;2023-04-25T16:43:37;10.90;97.10
42907;DHT22;28552;51.146;6.576;2023-04-25T16:46:39;10.70;97.30
42907;DHT22;28552;51.146;6.576;2023-04-25T16:49:40;10.70;97.20
42907;DHT22;28552;51.146;6.576;2023-04-25T16:52:41;10.70;97.60
42907;DHT22;28552;51.146;6.576;2023-04-25T16:55:41;11.00;98.00
42907;DHT22;28552;51.146;6.576;2023-04-25T16:58:42;11.70;97.10
42907;DHT22;28552;51.146;6.576;2023-04-25T17:01:43;12.60;95.50
42907;DHT22;28552;51.146;6.576;2023-04-25T17:04:43;13.40;94.20
42907;DHT22;28552;51.146;6.576;2023-04-25T17:07:44;13.70;94.00
42907;DHT22;28552;51.146;6.576;2023-04-25T17:10:44;13.90;92.30
42907;DHT22;28552;51.146;6.576;2023-04-25T17:13:45;14.30;92.30
42907;DHT22;28552;51.146;6.576;2023-04-25T17:16:46;14.60;91.60
42907;DHT22;28552;51.146;6.576;2023-04-25T17:19:47;14.90;91.10
42907;DHT22;28552;51.146;6.576;2023-04-25T17:22:47;15.00;90.50
42907;DHT22;28552;51.146;6.576;2023-04-25T17:25:48;15.20;90.10
42907;DHT22;28552;51.146;6.576;2023-04-25T17:28:49;15.10;90.80
42907;DHT22;28552;51.146;6.576;2023-04-25T17:31:49;15.20;89.30
42907;DHT22;28552;51.146;6.576;2023-04-25T17:34:50;15.20;90.10
42907;DHT22;28552;51.146;6.576;2023-04-25T17:37:51;14.30;90.00
42907;DHT22;28552;51.146;6.576;2023-04-25T17:40:52;13.30;89.30
42907;DHT22;28552;51.146;6.576;2023-04-25T17:43:53;12.20;88.60
42907;DHT22;28552;51.146;6.576;2023-04-25T17:46:53;11.40;90.30
42907;DHT22;28552;51.146;6.576;2023-04-25T17:49:54;10.70;90.40
42907;DHT22;28552;51.146;6.576;2023-04-25T17:52:55;10.40;91.30
42907;DHT22;28552;51.146;6.576;2023-04-25T17:55:56;10.00;92.10
42907;DHT22;28552;51.146;6.576;2023-04-25T17:58:56;9.60;92.70
42907;DHT22;28552;51.146;6.576;2023-04-25T18:01:57;9.30;93.30
42907;DHT22;28552;51.146;6.576;2023-04-25T18:04:59;9.10;93.80
42907;DHT22;28552;51.146;6.576;2023-04-25T18:07:59;9.00;94.50
42907;DHT22;28552;51.146;6.576;2023-04-25T18:11:00;8.90;95.20
42907;DHT22;28552;51.146;6.576;2023-04-25T18:14:00;8.80;95.30
42907;DHT22;28552;51.146;6.576;2023-04-25T18:17:01;8.80;95.90
42907;DHT22;28552;51.146;6.576;2023-04-25T18:20:03;9.20;95.80
42907;DHT22;28552;51.146;6.576;2023-04-25T18:23:05;9.60;95.30
42907;DHT22;28552;51.146;6.576;2023-04-25T18:26:06;9.80;95.60
42907;DHT22;28552;51.146;6.576;2023-04-25T18:29:08;9.70;96.00
42907;DHT22;28552;51.146;6.576;2023-04-25T18:32:09;9.30;96.00
42907;DHT22;28552;51.146;6.576;2023-04-25T18:35:09;9.00;96.80
42907;DHT22;28552;51.146;6.576;2023-04-25T18:38:10;8.80;97.30
42907;DHT22;28552;51.146;6.576;2023-04-25T18:41:10;8.60;98.30
42907;DHT22;28552;51.146;6.576;2023-04-25T18:44:11;8.50;98.20
42907;DHT22;28552;51.146;6.576;2023-04-25T18:47:12;8.50;98.80
42907;DHT22;28552;51.146;6.576;2023-04-25T18:50:12;8.30;99.10
42907;DHT22;28552;51.146;6.576;2023-04-25T18:53:13;8.20;99.40
42907;DHT22;28552;51.146;6.576;2023-04-25T18:56:14;8.10;99.60
42907;DHT22;28552;51.146;6.576;2023-04-25T18:59:15;8.00;99.80
42907;DHT22;28552;51.146;6.576;2023-04-25T19:02:16;7.90;99.80
42907;DHT22;28552;51.146;6.576;2023-04-25T19:05:17;7.70;99.90
42907;DHT22;28552;51.146;6.576;2023-04-25T19:08:17;7.50;99.90
42907;DHT22;28552;51.146;6.576;2023-04-25T19:11:19;7.40;99.90
42907;DHT22;28552;51.146;6.576;2023-04-25T19:14:20;7.30;99.90
42907;DHT22;28552;51.146;6.576;2023-04-25T19:17:21;7.10;99.90
42907;DHT22;28552;51.146;6.576;2023-04-25T19:20:22;7.00;99.90